createdAt,value
2019-03-23T00:02:01.947Z,-0.21
2019-03-23T00:06:05.568Z,-0.25
2019-03-23T00:10:09.413Z,-0.24
2019-03-23T00:14:12.947Z,-0.32
2019-03-23T00:18:16.665Z,-0.27
2019-03-23T00:22:20.386Z,-0.31
2019-03-23T00:26:24.143Z,-0.20
2019-03-23T00:30:27.681Z,-0.31
2019-03-23T00:34:31.281Z,-0.37
2019-03-23T00:38:34.812Z,-0.30
2019-03-23T00:42:38.372Z,-0.35
2019-03-23T00:46:41.877Z,-0.36
2019-03-23T00:50:45.385Z,-0.36
2019-03-23T00:54:48.873Z,-0.31
2019-03-23T00:58:52.793Z,-0.34
2019-03-23T01:02:56.799Z,-0.40
2019-03-23T01:07:00.184Z,-0.36
2019-03-23T01:11:03.814Z,-0.46
2019-03-23T01:15:09.322Z,-0.47
2019-03-23T01:19:12.792Z,-0.46
2019-03-23T01:23:16.208Z,-0.52
2019-03-23T01:27:19.797Z,-0.47
2019-03-23T01:31:23.442Z,-0.46
2019-03-23T01:35:27.120Z,-0.44
2019-03-23T01:39:30.733Z,-0.29
2019-03-23T01:43:34.162Z,-0.23
2019-03-23T01:47:37.756Z,-0.34
2019-03-23T01:51:41.276Z,-0.37
2019-03-23T01:55:44.742Z,-0.39
2019-03-23T01:59:48.241Z,-0.41
2019-03-23T02:03:51.877Z,-0.49
2019-03-23T02:07:58.486Z,-0.48
2019-03-23T02:12:02.094Z,-0.49
2019-03-23T02:16:05.803Z,-0.44
2019-03-23T02:20:09.966Z,-0.32
2019-03-23T02:24:13.558Z,-0.22
2019-03-23T02:28:17.099Z,-0.17
2019-03-23T02:32:20.643Z,-0.19
2019-03-23T02:36:24.641Z,-0.22
2019-03-23T02:40:29.429Z,-0.21
2019-03-23T02:44:32.985Z,-0.15
2019-03-23T02:48:36.536Z,-0.06
2019-03-23T02:52:40.231Z,0.05
2019-03-23T02:56:43.879Z,0.06
2019-03-23T03:00:47.345Z,0.11
2019-03-23T03:04:51.000Z,0.16
2019-03-23T03:08:54.380Z,0.16
2019-03-23T03:12:58.139Z,0.19
2019-03-23T03:17:01.445Z,0.06
2019-03-23T03:21:05.055Z,0.06
2019-03-23T03:25:09.089Z,0.11
2019-03-23T03:29:12.617Z,0.15
2019-03-23T03:33:16.146Z,0.18
2019-03-23T03:37:19.788Z,0.23
2019-03-23T03:41:23.428Z,0.22
2019-03-23T03:45:28.467Z,0.24
2019-03-23T03:49:32.009Z,0.25
2019-03-23T03:53:35.578Z,0.32
2019-03-23T03:57:39.060Z,0.37
2019-03-23T04:01:42.627Z,0.39
2019-03-23T04:05:46.197Z,0.47
2019-03-23T04:09:49.808Z,0.55
2019-03-23T04:13:53.479Z,0.64
2019-03-23T04:17:57.112Z,0.72
2019-03-23T04:22:00.666Z,0.77
2019-03-23T04:26:04.360Z,0.87
2019-03-23T04:30:08.561Z,0.94
2019-03-23T04:34:12.270Z,1.03
2019-03-23T04:38:22.523Z,1.09
2019-03-23T04:42:21.347Z,1.13
2019-03-23T04:46:24.937Z,1.20
2019-03-23T04:50:28.657Z,1.24
2019-03-23T04:54:32.328Z,1.33
2019-03-23T04:58:35.947Z,1.36
2019-03-23T05:02:40.601Z,1.40
2019-03-23T05:06:44.404Z,1.43
2019-03-23T05:10:47.811Z,1.45
2019-03-23T05:14:51.569Z,1.50
2019-03-23T05:18:55.012Z,1.50
2019-03-23T05:22:58.956Z,1.54
2019-03-23T05:27:02.406Z,1.52
2019-03-23T05:31:07.143Z,1.48
2019-03-23T05:35:11.847Z,1.53
2019-03-23T05:39:19.132Z,1.56
2019-03-23T05:43:22.492Z,1.64
2019-03-23T05:47:25.827Z,1.72
2019-03-23T05:51:29.481Z,1.78
2019-03-23T05:55:33.083Z,1.83
2019-03-23T05:59:36.529Z,1.82
2019-03-23T06:03:40.211Z,1.85
2019-03-23T06:07:43.612Z,1.85
2019-03-23T06:11:48.241Z,1.91
2019-03-23T06:15:51.751Z,1.95
2019-03-23T06:19:55.189Z,1.99
2019-03-23T06:23:58.662Z,2.03
2019-03-23T06:28:02.182Z,2.08
2019-03-23T06:32:05.747Z,2.13
2019-03-23T06:36:09.321Z,2.17
2019-03-23T06:40:13.227Z,2.18
2019-03-23T06:44:18.567Z,2.22
2019-03-23T06:48:22.133Z,2.23
2019-03-23T06:52:25.645Z,2.20
2019-03-23T06:56:29.182Z,2.23
2019-03-23T07:00:33.138Z,2.20
2019-03-23T07:04:36.601Z,2.22
2019-03-23T07:08:40.166Z,2.26
2019-03-23T07:12:43.526Z,2.31
2019-03-23T07:16:46.978Z,2.38
2019-03-23T07:20:50.484Z,2.42
2019-03-23T07:24:54.142Z,2.45
2019-03-23T07:28:57.607Z,2.47
2019-03-23T07:33:01.116Z,2.48
2019-03-23T07:37:05.738Z,2.53
2019-03-23T07:41:09.817Z,2.61
2019-03-23T07:45:13.675Z,2.69
2019-03-23T07:49:17.449Z,2.66
2019-03-23T07:53:21.019Z,2.67
2019-03-23T07:57:24.526Z,2.63
2019-03-23T08:01:28.206Z,2.62
2019-03-23T08:05:31.726Z,2.62
2019-03-23T08:09:37.957Z,2.74
2019-03-23T08:13:41.616Z,2.98
2019-03-23T08:17:45.036Z,2.97
2019-03-23T08:21:50.243Z,2.88
2019-03-23T08:25:54.341Z,2.85
2019-03-23T08:29:57.744Z,2.68
2019-03-23T08:34:01.214Z,2.62
2019-03-23T08:38:04.735Z,2.59
2019-03-23T08:42:11.389Z,2.51
2019-03-23T08:46:14.907Z,2.51
2019-03-23T08:50:18.524Z,2.47
2019-03-23T08:54:22.060Z,2.46
2019-03-23T08:58:29.055Z,2.41
2019-03-23T09:02:32.653Z,2.36
2019-03-23T09:06:36.251Z,2.38
2019-03-23T09:10:39.803Z,2.38
2019-03-23T09:14:43.355Z,2.36
2019-03-23T09:18:46.927Z,2.37
2019-03-23T09:22:50.499Z,2.34
2019-03-23T09:26:54.043Z,2.30
2019-03-23T09:30:57.560Z,2.30
2019-03-23T09:35:01.062Z,2.32
2019-03-23T09:39:05.769Z,2.34
2019-03-23T09:43:09.360Z,2.39
2019-03-23T09:47:12.986Z,2.39
2019-03-23T09:51:16.801Z,2.40
2019-03-23T09:55:20.417Z,2.44
2019-03-23T09:59:27.344Z,2.44
2019-03-23T10:03:31.083Z,2.47
2019-03-23T10:07:34.649Z,2.44
2019-03-23T10:11:39.750Z,2.42
2019-03-23T10:15:43.380Z,2.44
2019-03-23T10:19:46.795Z,2.45
2019-03-23T10:23:50.444Z,2.45
2019-03-23T10:27:53.801Z,2.46
2019-03-23T10:31:57.360Z,2.51
2019-03-23T10:36:00.992Z,2.56
2019-03-23T10:40:04.753Z,2.63
2019-03-23T10:44:08.381Z,2.79
2019-03-23T10:48:12.267Z,2.85
2019-03-23T10:52:16.207Z,2.94
2019-03-23T10:56:19.758Z,3.17
2019-03-23T11:00:23.219Z,3.34
2019-03-23T11:04:26.890Z,3.58
2019-03-23T11:08:30.347Z,3.72
2019-03-23T11:12:33.908Z,3.66
2019-03-23T11:16:37.475Z,3.72
2019-03-23T11:20:41.173Z,3.66
2019-03-23T11:24:44.568Z,3.66
2019-03-23T11:28:48.086Z,3.75
2019-03-23T11:32:51.598Z,3.84
2019-03-23T11:37:01.115Z,3.87
2019-03-23T11:41:05.086Z,3.87
2019-03-23T11:45:09.366Z,3.72
2019-03-23T11:49:12.915Z,3.64
2019-03-23T11:53:16.638Z,3.67
2019-03-23T11:57:20.110Z,3.70
2019-03-23T12:01:23.998Z,3.67
2019-03-23T12:05:27.619Z,3.67
2019-03-23T12:09:31.154Z,3.68
2019-03-23T12:13:34.609Z,3.71
2019-03-23T12:17:38.094Z,3.71
2019-03-23T12:21:41.494Z,3.72
2019-03-23T12:25:45.924Z,3.65
2019-03-23T12:29:52.828Z,3.70
2019-03-23T12:33:56.498Z,3.72
2019-03-23T12:37:59.970Z,3.67
2019-03-23T12:42:03.627Z,3.68
2019-03-23T12:46:07.193Z,3.74
2019-03-23T12:50:11.064Z,3.75
2019-03-23T12:54:14.718Z,3.77
2019-03-23T12:58:18.361Z,3.82
2019-03-23T13:02:21.856Z,3.85
2019-03-23T13:06:25.422Z,3.84
2019-03-23T13:10:29.158Z,3.84
2019-03-23T13:14:34.577Z,3.88
2019-03-23T13:18:37.965Z,3.88
2019-03-23T13:22:41.865Z,3.91
2019-03-23T13:26:45.495Z,4.06
2019-03-23T13:30:49.013Z,4.09
2019-03-23T13:34:52.344Z,4.18
2019-03-23T13:38:55.966Z,4.15
2019-03-23T13:42:59.399Z,4.20
2019-03-23T13:47:04.616Z,4.20
2019-03-23T13:51:10.635Z,4.17
2019-03-23T13:55:27.120Z,4.14
2019-03-23T13:59:32.061Z,4.11
2019-03-23T14:03:35.522Z,4.10
2019-03-23T14:07:39.026Z,4.10
2019-03-23T14:11:42.794Z,4.10
2019-03-23T14:15:46.353Z,4.06
2019-03-23T14:19:50.417Z,4.05
2019-03-23T14:23:55.213Z,4.04
2019-03-23T14:27:58.770Z,4.02
2019-03-23T14:32:02.302Z,3.93
2019-03-23T14:36:06.907Z,3.94
2019-03-23T14:40:10.807Z,4.00
2019-03-23T14:44:15.230Z,3.99
2019-03-23T14:48:18.510Z,3.97
2019-03-23T14:52:21.838Z,3.93
2019-03-23T14:56:25.103Z,3.95
2019-03-23T15:00:35.812Z,3.95
2019-03-23T15:04:39.052Z,3.97
2019-03-23T15:08:42.462Z,3.90
2019-03-23T15:12:45.795Z,3.84
2019-03-23T15:16:49.421Z,3.82
2019-03-23T15:20:54.966Z,3.85
2019-03-23T15:24:58.299Z,3.89
2019-03-23T15:29:01.578Z,3.89
2019-03-23T15:33:04.965Z,3.80
2019-03-23T15:37:08.295Z,3.81
2019-03-23T15:41:11.600Z,3.77
2019-03-23T15:45:15.095Z,3.81
2019-03-23T15:49:18.430Z,3.79
2019-03-23T15:53:21.706Z,3.73
2019-03-23T15:57:25.068Z,3.77
2019-03-23T16:01:28.878Z,3.73
2019-03-23T16:05:32.197Z,3.73
2019-03-23T16:09:35.674Z,3.72
2019-03-23T16:13:38.983Z,3.66
2019-03-23T16:17:42.372Z,3.64
2019-03-23T16:21:46.880Z,3.57
2019-03-23T16:25:50.217Z,3.63
2019-03-23T16:29:53.647Z,3.63
2019-03-23T16:33:58.174Z,3.57
2019-03-23T16:38:01.589Z,3.58
2019-03-23T16:42:05.167Z,3.48
2019-03-23T16:46:09.257Z,3.42
2019-03-23T16:50:12.763Z,3.35
2019-03-23T16:54:17.209Z,3.30
2019-03-23T16:58:20.474Z,3.28
2019-03-23T17:02:26.002Z,3.24
2019-03-23T17:06:30.812Z,3.25
2019-03-23T17:10:34.899Z,3.20
2019-03-23T17:14:39.545Z,3.21
2019-03-23T17:18:43.113Z,3.19
2019-03-23T17:22:46.413Z,3.12
2019-03-23T17:26:49.723Z,3.06
2019-03-23T17:30:55.422Z,2.97
2019-03-23T17:34:59.320Z,2.96
2019-03-23T17:39:02.597Z,2.92
2019-03-23T17:43:07.463Z,2.86
2019-03-23T17:47:12.053Z,2.64
2019-03-23T17:51:16.538Z,2.49
2019-03-23T17:55:19.873Z,2.44
2019-03-23T17:59:23.902Z,2.44
2019-03-23T18:03:29.586Z,2.39
2019-03-23T18:07:38.334Z,2.49
2019-03-23T18:11:41.646Z,2.57
2019-03-23T18:15:47.886Z,2.57
2019-03-23T18:19:51.148Z,2.52
2019-03-23T18:23:54.629Z,2.42
2019-03-23T18:27:58.019Z,2.34
2019-03-23T18:32:01.435Z,2.23
2019-03-23T18:36:04.790Z,2.23
2019-03-23T18:40:08.452Z,2.16
2019-03-23T18:44:16.236Z,2.02
2019-03-23T18:48:16.766Z,1.91
2019-03-23T18:52:20.197Z,1.81
2019-03-23T18:56:23.827Z,1.69
2019-03-23T19:00:36.517Z,1.64
2019-03-23T19:04:39.857Z,1.73
2019-03-23T19:08:43.676Z,1.73
2019-03-23T19:12:47.122Z,1.56
2019-03-23T19:16:50.412Z,1.44
2019-03-23T19:20:54.033Z,1.36
2019-03-23T19:24:57.308Z,1.32
2019-03-23T19:29:00.654Z,1.14
2019-03-23T19:33:06.220Z,1.02
2019-03-23T19:37:09.359Z,0.90
2019-03-23T19:41:14.175Z,0.81
2019-03-23T19:45:17.511Z,0.55
2019-03-23T19:49:20.821Z,0.46
2019-03-23T19:53:24.383Z,0.30
2019-03-23T19:57:27.753Z,0.24
2019-03-23T20:01:31.253Z,0.18
2019-03-23T20:05:34.839Z,0.07
2019-03-23T20:09:38.710Z,0.01
2019-03-23T20:13:43.519Z,-0.12
2019-03-23T20:17:46.867Z,-0.21
2019-03-23T20:21:50.131Z,-0.31
2019-03-23T20:25:53.519Z,-0.41
2019-03-23T20:29:57.157Z,-0.46
2019-03-23T20:34:00.842Z,-0.47
2019-03-23T20:38:04.092Z,-0.61
2019-03-23T20:42:07.692Z,-0.64
2019-03-23T20:46:13.204Z,-0.71
2019-03-23T20:50:16.671Z,-0.77
2019-03-23T20:54:20.436Z,-0.86
2019-03-23T20:58:23.821Z,-0.88
2019-03-23T21:02:27.131Z,-0.90
2019-03-23T21:06:30.454Z,-0.84
2019-03-23T21:10:35.531Z,-0.91
2019-03-23T21:14:38.870Z,-0.99
2019-03-23T21:18:42.137Z,-1.01
2019-03-23T21:22:45.469Z,-1.10
2019-03-23T21:26:48.747Z,-1.08
2019-03-23T21:30:52.060Z,-1.18
2019-03-23T21:34:56.203Z,-1.22
2019-03-23T21:38:59.543Z,-1.21
2019-03-23T21:43:02.821Z,-1.25
2019-03-23T21:47:06.256Z,-1.20
2019-03-23T21:51:11.528Z,-1.24
2019-03-23T21:55:15.650Z,-1.29
2019-03-23T21:59:18.983Z,-1.36
2019-03-23T22:03:22.556Z,-1.38
2019-03-23T22:07:25.844Z,-1.47
2019-03-23T22:11:29.538Z,-1.33
2019-03-23T22:15:34.313Z,-1.30
2019-03-23T22:19:37.721Z,-1.24
2019-03-23T22:23:41.338Z,-1.08
2019-03-23T22:27:44.655Z,-1.21
2019-03-23T22:31:47.917Z,-1.24
2019-03-23T22:35:51.259Z,-1.13
2019-03-23T22:39:54.512Z,-1.17
2019-03-23T22:43:57.977Z,-1.10
2019-03-23T22:48:01.264Z,-1.15
2019-03-23T22:52:04.971Z,-1.23
2019-03-23T22:56:08.328Z,-1.11
2019-03-23T23:00:14.287Z,-1.14
2019-03-23T23:04:19.060Z,-0.85
2019-03-23T23:08:22.378Z,-0.78
2019-03-23T23:12:26.231Z,-0.67
2019-03-23T23:16:33.211Z,-0.58
2019-03-23T23:20:36.458Z,-0.55
2019-03-23T23:24:39.770Z,-0.43
2019-03-23T23:28:43.052Z,-0.38
2019-03-23T23:32:46.332Z,-0.34
2019-03-23T23:36:49.598Z,-0.40
2019-03-23T23:40:52.966Z,-0.25
2019-03-23T23:44:56.246Z,-0.32
2019-03-23T23:48:59.535Z,-0.41
2019-03-23T23:53:02.809Z,-0.32
2019-03-23T23:57:06.107Z,-0.16
